Time;durP1;ratioP1;P1;durP2;ratioP2;P2;SDS_P1;SDS_P2;PMS_P1;PMS_P2;Temp;Humidity;BMP_temperature;BMP_pressure;BME280_temperature;BME280_humidity;BME280_pressure;Samples;Min_cycle;Max_cycle;Signal;HPM_P1;HPM_P2
2022/10/12 00:00:17;;;;;;;8.87;7.20;;;14.20;99.90;;;;;;5032633;28;20178;-58
2022/10/12 00:02:43;;;;;;;12.40;7.50;;;14.20;99.90;;;;;;5031363;28;20262;-54
2022/10/12 00:05:09;;;;;;;9.23;6.90;;;14.10;99.90;;;;;;5032404;28;20174;-57
2022/10/12 00:07:34;;;;;;;9.40;6.30;;;14.10;99.90;;;;;;5032183;28;20178;-57
2022/10/12 00:10:00;;;;;;;10.67;6.03;;;14.10;99.90;;;;;;5032469;28;20181;-57
2022/10/12 00:12:26;;;;;;;9.20;5.87;;;14.10;99.90;;;;;;5032036;28;20257;-57
2022/10/12 00:14:51;;;;;;;10.17;6.20;;;14.00;99.90;;;;;;5032358;28;20170;-58
2022/10/12 00:17:17;;;;;;;7.93;5.50;;;13.90;99.90;;;;;;5032248;28;20182;-56
2022/10/12 00:19:42;;;;;;;7.87;6.07;;;13.90;99.90;;;;;;5032241;28;20173;-57
2022/10/12 00:22:08;;;;;;;8.83;6.57;;;13.80;99.90;;;;;;5032439;28;20187;-57
2022/10/12 00:24:34;;;;;;;13.13;6.43;;;13.80;99.90;;;;;;5031723;28;20222;-57
2022/10/12 00:26:59;;;;;;;8.93;6.20;;;13.80;99.90;;;;;;5032311;28;20216;-57
2022/10/12 00:29:25;;;;;;;12.07;8.43;;;13.70;99.90;;;;;;5032203;28;20538;-57
2022/10/12 00:31:50;;;;;;;12.73;8.90;;;13.80;99.90;;;;;;5031769;28;20178;-55
2022/10/12 00:34:16;;;;;;;10.90;7.97;;;13.80;99.90;;;;;;5031689;28;20203;-56
2022/10/12 00:36:42;;;;;;;11.83;8.77;;;13.80;99.90;;;;;;5032133;28;20174;-58
2022/10/12 00:39:09;;;;;;;10.20;9.13;;;13.70;99.90;;;;;;5032145;28;20566;-56
2022/10/12 00:41:38;;;;;;;13.93;8.57;;;13.80;99.90;;;;;;5031716;28;20196;-58
2022/10/12 00:44:23;;;;;;;9.37;8.17;;;13.80;99.90;;;;;;5031498;28;20263;-58
2022/10/12 00:46:50;;;;;;;9.80;7.83;;;13.70;99.90;;;;;;5031602;28;20237;-57
2022/10/12 00:49:24;;;;;;;9.73;8.63;;;13.70;99.90;;;;;;5031830;28;20658;-57
2022/10/12 00:51:59;;;;;;;11.17;8.90;;;13.70;99.90;;;;;;5031652;28;20583;-57
2022/10/12 00:54:29;;;;;;;10.10;8.13;;;13.60;99.90;;;;;;5031512;28;20205;-56
2022/10/12 00:56:56;;;;;;;9.20;7.33;;;13.50;99.90;;;;;;5025933;28;20172;-58
2022/10/12 00:59:29;;;;;;;9.27;7.13;;;13.50;99.90;;;;;;5031847;28;20208;-58
2022/10/12 01:01:55;;;;;;;9.50;6.93;;;13.50;99.90;;;;;;5031606;28;20261;-57
2022/10/12 01:04:22;;;;;;;8.90;7.17;;;13.60;99.90;;;;;;5031323;28;20292;-53
2022/10/12 01:06:48;;;;;;;8.53;6.73;;;13.60;99.90;;;;;;5030859;28;20163;-58
2022/10/12 01:09:14;;;;;;;10.03;7.60;;;13.60;99.90;;;;;;5031620;28;20419;-57
2022/10/12 01:11:40;;;;;;;9.77;7.37;;;13.60;99.90;;;;;;5031384;28;20167;-58
2022/10/12 01:14:05;;;;;;;9.03;7.23;;;13.60;99.90;;;;;;5030883;28;20205;-56
2022/10/12 01:16:40;;;;;;;9.63;7.00;;;13.50;99.90;;;;;;5031528;28;20177;-56
2022/10/12 01:19:14;;;;;;;7.80;7.00;;;13.50;99.90;;;;;;5031300;28;20169;-56
2022/10/12 01:21:49;;;;;;;9.17;6.93;;;13.50;99.90;;;;;;5031536;28;20176;-56
2022/10/12 01:24:49;;;;;;;12.37;7.23;;;13.60;99.90;;;;;;5030913;28;20171;-59
2022/10/12 01:27:41;;;;;;;11.53;7.93;;;13.50;99.90;;;;;;5031547;28;20180;-58
2022/10/12 01:30:24;;;;;;;8.47;7.23;;;13.50;99.90;;;;;;5031058;28;20220;-55
2022/10/12 01:32:52;;;;;;;8.37;7.27;;;13.40;99.90;;;;;;5031057;28;20651;-58
2022/10/12 01:35:46;;;;;;;11.33;7.67;;;13.40;99.90;;;;;;5030101;28;20170;-58
2022/10/12 01:38:18;;;;;;;10.90;8.07;;;13.40;99.90;;;;;;5031285;28;20542;-58
2022/10/12 01:40:54;;;;;;;12.27;7.37;;;13.60;99.90;;;;;;5030906;28;20179;-58
2022/10/12 01:43:31;;;;;;;8.83;7.30;;;13.50;99.90;;;;;;5031139;28;20234;-58
2022/10/12 01:46:05;;;;;;;10.80;7.83;;;13.60;99.90;;;;;;5031049;28;20192;-57
2022/10/12 01:48:31;;;;;;;9.43;7.80;;;13.60;99.90;;;;;;5031174;28;20204;-58
2022/10/12 01:51:01;;;;;;;9.73;7.57;;;13.60;99.90;;;;;;5030270;28;20588;-57
2022/10/12 01:53:38;;;;;;;8.63;6.77;;;13.50;99.90;;;;;;5030113;28;20227;-56
2022/10/12 01:56:39;;;;;;;8.83;7.70;;;13.50;99.90;;;;;;5030712;28;20692;-57
2022/10/12 01:59:28;;;;;;;9.93;8.67;;;13.60;99.90;;;;;;5008544;28;20268;-57
2022/10/12 02:02:03;;;;;;;10.23;7.80;;;13.60;99.90;;;;;;4949875;28;20207;-58
2022/10/12 02:04:43;;;;;;;12.00;7.60;;;13.60;99.90;;;;;;4950495;29;20181;-58
2022/10/12 02:07:15;;;;;;;8.53;7.20;;;13.50;99.90;;;;;;4950312;29;20675;-58
2022/10/12 02:09:42;;;;;;;10.03;7.60;;;13.50;99.90;;;;;;4950815;29;20269;-56
2022/10/12 02:12:13;;;;;;;9.37;7.53;;;13.50;99.90;;;;;;4950262;28;20195;-58
2022/10/12 02:14:49;;;;;;;10.73;7.80;;;13.50;99.90;;;;;;4950647;29;20183;-57
2022/10/12 02:17:17;;;;;;;12.60;7.60;;;13.50;99.90;;;;;;4950536;29;20274;-57
2022/10/12 02:19:51;;;;;;;8.10;7.30;;;13.40;99.90;;;;;;4952036;28;20184;-58
2022/10/12 02:22:17;;;;;;;10.07;7.50;;;13.50;99.90;;;;;;4954119;28;20210;-57
2022/10/12 02:24:47;;;;;;;7.97;7.10;;;13.50;99.90;;;;;;4953613;29;20183;-58
2022/10/12 02:27:14;;;;;;;10.97;7.87;;;13.60;99.90;;;;;;4954300;29;20198;-58
2022/10/12 02:29:44;;;;;;;9.73;7.77;;;13.60;99.90;;;;;;4953681;29;20290;-57
2022/10/12 02:32:18;;;;;;;10.40;7.47;;;13.50;99.90;;;;;;4952309;28;20250;-58
2022/10/12 02:34:46;;;;;;;9.50;7.97;;;13.50;99.90;;;;;;4956738;28;20209;-58
2022/10/12 02:37:28;;;;;;;8.70;7.70;;;13.50;99.90;;;;;;4972586;28;20172;-57
2022/10/12 02:39:59;;;;;;;8.13;7.33;;;13.40;99.90;;;;;;5027626;28;20199;-57
2022/10/12 02:42:30;;;;;;;10.43;8.27;;;13.40;99.90;;;;;;5033622;28;20199;-58
2022/10/12 02:44:58;;;;;;;12.10;8.13;;;13.40;99.90;;;;;;5033882;28;20177;-57
2022/10/12 02:47:27;;;;;;;10.03;8.70;;;13.50;99.90;;;;;;5034317;28;20180;-57
2022/10/12 02:49:54;;;;;;;8.73;7.40;;;13.40;99.90;;;;;;5034278;28;20257;-58
2022/10/12 02:52:20;;;;;;;9.20;7.30;;;13.30;99.90;;;;;;5034083;28;20208;-57
2022/10/12 02:54:46;;;;;;;10.33;7.20;;;13.20;99.90;;;;;;5034348;28;20659;-57
2022/10/12 02:57:12;;;;;;;11.67;7.73;;;13.30;99.90;;;;;;5033975;28;20261;-58
2022/10/12 02:59:37;;;;;;;9.67;7.53;;;13.30;99.90;;;;;;5034041;28;20208;-57
2022/10/12 03:02:03;;;;;;;10.20;7.23;;;13.20;99.90;;;;;;5033817;28;20235;-57
2022/10/12 03:04:28;;;;;;;9.30;7.07;;;13.20;99.90;;;;;;5033764;28;20169;-58
2022/10/12 03:06:54;;;;;;;10.13;7.37;;;13.10;99.90;;;;;;5033815;28;20174;-58
2022/10/12 03:09:19;;;;;;;8.37;6.87;;;13.20;99.90;;;;;;5033976;28;20241;-55
2022/10/12 03:11:45;;;;;;;11.77;7.77;;;13.20;99.90;;;;;;5031889;28;20215;-56
2022/10/12 03:14:13;;;;;;;9.07;7.27;;;13.10;99.90;;;;;;5033100;28;20230;-58
2022/10/12 03:16:39;;;;;;;8.50;7.27;;;13.10;99.90;;;;;;5033789;28;20244;-56
2022/10/12 03:19:04;;;;;;;8.53;7.50;;;13.00;99.90;;;;;;5033473;28;20263;-56
2022/10/12 03:21:30;;;;;;;10.67;7.63;;;13.00;99.90;;;;;;5033787;28;20172;-56
2022/10/12 03:23:55;;;;;;;9.47;7.30;;;13.00;99.90;;;;;;5033042;28;20666;-56
2022/10/12 03:26:21;;;;;;;10.43;8.10;;;13.00;99.90;;;;;;5033614;28;20208;-57
2022/10/12 03:28:46;;;;;;;10.37;8.27;;;13.10;99.90;;;;;;5033288;28;20167;-58
2022/10/12 03:31:12;;;;;;;9.03;7.43;;;13.20;99.90;;;;;;5033283;28;20180;-59
2022/10/12 03:33:38;;;;;;;9.20;7.40;;;13.20;99.90;;;;;;5032828;28;20231;-58
2022/10/12 03:36:04;;;;;;;10.00;8.00;;;13.20;99.90;;;;;;5033402;28;20172;-59
2022/10/12 03:38:30;;;;;;;10.30;7.97;;;13.10;99.90;;;;;;5033633;28;20160;-58
2022/10/12 03:40:56;;;;;;;10.00;8.17;;;13.20;99.90;;;;;;5033522;28;20251;-58
2022/10/12 03:43:22;;;;;;;10.03;8.20;;;13.20;99.90;;;;;;5032993;28;20226;-57
2022/10/12 03:45:47;;;;;;;10.00;8.73;;;13.20;99.90;;;;;;5033019;28;20180;-57
2022/10/12 03:48:13;;;;;;;10.47;8.63;;;13.20;99.90;;;;;;5033228;28;20186;-59
2022/10/12 03:50:39;;;;;;;8.63;7.70;;;13.20;99.90;;;;;;5032944;28;20685;-57
2022/10/12 03:53:05;;;;;;;10.53;8.17;;;13.20;99.90;;;;;;5032857;28;20207;-58
2022/10/12 03:55:31;;;;;;;10.70;8.53;;;13.30;99.90;;;;;;5032797;28;20166;-57
2022/10/12 03:57:56;;;;;;;8.97;8.07;;;13.30;99.90;;;;;;5032801;28;20222;-58
2022/10/12 04:00:24;;;;;;;9.40;8.50;;;13.30;99.90;;;;;;5032918;28;20169;-58
2022/10/12 04:02:49;;;;;;;9.13;7.73;;;13.20;99.90;;;;;;5032799;28;20570;-58
2022/10/12 04:05:16;;;;;;;10.10;8.20;;;13.30;99.90;;;;;;5032544;28;20207;-58
2022/10/12 04:07:41;;;;;;;10.47;7.60;;;13.30;99.90;;;;;;5031335;28;20176;-58
2022/10/12 04:10:07;;;;;;;9.53;7.57;;;13.30;99.90;;;;;;5032773;28;20232;-55
2022/10/12 04:12:33;;;;;;;9.43;7.53;;;13.20;99.90;;;;;;5032269;28;20250;-57
2022/10/12 04:14:59;;;;;;;9.30;7.33;;;13.20;99.90;;;;;;5032340;28;20533;-58
2022/10/12 04:17:24;;;;;;;8.57;7.67;;;13.20;99.90;;;;;;5032342;28;20175;-56
2022/10/12 04:19:50;;;;;;;10.17;7.50;;;13.10;99.90;;;;;;5032575;28;20298;-58
2022/10/12 04:22:15;;;;;;;9.03;8.13;;;13.00;99.90;;;;;;5032517;28;20199;-56
2022/10/12 04:24:41;;;;;;;9.40;7.60;;;13.00;99.90;;;;;;5031985;28;20191;-56
2022/10/12 04:27:06;;;;;;;8.17;7.30;;;13.10;99.90;;;;;;5032301;28;20167;-58
2022/10/12 04:29:32;;;;;;;9.50;7.90;;;13.10;99.90;;;;;;5032008;28;20254;-57
2022/10/12 04:31:58;;;;;;;8.77;7.63;;;13.00;99.90;;;;;;5032178;28;20222;-58
2022/10/12 04:34:23;;;;;;;8.63;7.67;;;13.00;99.90;;;;;;5031765;28;20206;-58
2022/10/12 04:36:49;;;;;;;11.07;7.87;;;13.00;99.90;;;;;;5032324;28;20752;-58
2022/10/12 04:39:15;;;;;;;9.33;7.03;;;12.90;99.90;;;;;;5031808;28;20250;-56
2022/10/12 04:41:40;;;;;;;10.73;7.23;;;12.80;99.90;;;;;;5031696;28;20645;-57
2022/10/12 04:44:07;;;;;;;9.40;6.73;;;12.70;99.90;;;;;;5031700;28;20210;-57
2022/10/12 04:46:33;;;;;;;8.80;7.10;;;12.60;99.90;;;;;;5033162;28;20198;-58
2022/10/12 04:48:58;;;;;;;9.67;6.57;;;12.50;99.90;;;;;;5031864;28;20180;-58
2022/10/12 04:51:24;;;;;;;8.63;6.77;;;12.50;99.90;;;;;;5031833;28;20234;-58
2022/10/12 04:53:50;;;;;;;7.93;7.00;;;12.50;99.90;;;;;;5031525;28;20219;-57
2022/10/12 04:56:16;;;;;;;9.90;6.70;;;12.50;99.90;;;;;;5030518;28;20163;-56
2022/10/12 04:58:43;;;;;;;9.13;6.80;;;12.50;99.90;;;;;;5027236;28;20534;-57
2022/10/12 05:01:08;;;;;;;11.17;6.57;;;12.40;99.90;;;;;;5030309;28;20169;-56
2022/10/12 05:03:34;;;;;;;9.33;6.40;;;12.40;99.90;;;;;;5031414;28;20204;-56
2022/10/12 05:05:59;;;;;;;12.43;7.20;;;12.40;99.90;;;;;;5031796;28;20641;-53
2022/10/12 05:08:25;;;;;;;7.67;6.87;;;12.40;99.90;;;;;;5031439;28;20208;-53
2022/10/12 05:10:51;;;;;;;8.27;6.10;;;12.30;99.90;;;;;;5031606;28;20519;-56
2022/10/12 05:13:16;;;;;;;9.30;7.53;;;12.40;99.90;;;;;;5030702;28;20677;-54
2022/10/12 05:15:43;;;;;;;8.93;7.30;;;12.50;99.90;;;;;;5031685;28;20172;-54
2022/10/12 05:18:08;;;;;;;10.00;7.30;;;12.50;99.90;;;;;;5031529;28;20172;-57
2022/10/12 05:20:34;;;;;;;10.20;7.63;;;12.50;99.90;;;;;;5031499;28;20176;-57
2022/10/12 05:23:00;;;;;;;10.23;8.20;;;12.60;99.90;;;;;;5028805;28;20707;-54
2022/10/12 05:25:28;;;;;;;10.90;8.17;;;12.60;99.90;;;;;;5029848;28;20172;-57
2022/10/12 05:27:54;;;;;;;11.40;8.47;;;12.60;99.90;;;;;;5031476;28;20200;-57
2022/10/12 05:30:19;;;;;;;9.03;8.13;;;12.60;99.90;;;;;;5031096;28;20192;-58
2022/10/12 05:32:45;;;;;;;9.37;7.70;;;12.60;99.90;;;;;;5031290;28;20257;-56
2022/10/12 05:35:11;;;;;;;10.47;9.07;;;12.60;99.90;;;;;;5031101;28;20212;-55
2022/10/12 05:37:36;;;;;;;10.83;8.27;;;12.60;99.90;;;;;;5027418;28;20191;-54
2022/10/12 05:40:03;;;;;;;9.20;8.20;;;12.60;99.90;;;;;;5028848;28;20267;-58
2022/10/12 05:42:28;;;;;;;7.90;7.10;;;12.60;99.90;;;;;;5029830;28;20206;-56
2022/10/12 05:44:54;;;;;;;8.13;7.33;;;12.70;99.90;;;;;;5030695;28;20179;-57
2022/10/12 05:47:19;;;;;;;8.80;7.90;;;12.80;99.90;;;;;;5030574;28;20214;-57
2022/10/12 05:49:45;;;;;;;9.60;6.83;;;12.80;99.90;;;;;;5029293;28;20653;-58
2022/10/12 05:52:10;;;;;;;8.53;7.00;;;12.90;99.90;;;;;;5030618;28;20187;-57
2022/10/12 05:54:36;;;;;;;8.33;7.17;;;12.80;99.90;;;;;;5019650;28;20172;-55
2022/10/12 05:57:02;;;;;;;8.33;7.37;;;12.80;99.90;;;;;;5026537;28;20609;-58
2022/10/12 05:59:27;;;;;;;9.70;8.70;;;12.80;99.90;;;;;;5033251;28;20552;-56
2022/10/12 06:01:53;;;;;;;10.20;8.27;;;12.90;99.90;;;;;;5032191;28;20179;-58
2022/10/12 06:04:19;;;;;;;10.90;9.87;;;12.80;99.90;;;;;;5034417;28;20545;-56
2022/10/12 06:06:44;;;;;;;10.57;8.77;;;12.90;99.90;;;;;;5034520;28;20629;-57
2022/10/12 06:09:11;;;;;;;11.67;8.47;;;13.00;99.90;;;;;;5034772;28;20175;-58
2022/10/12 06:11:36;;;;;;;11.53;7.50;;;13.00;99.90;;;;;;5028202;28;20180;-58
2022/10/12 06:14:02;;;;;;;8.63;7.73;;;13.00;99.90;;;;;;5034123;28;20212;-57
2022/10/12 06:16:28;;;;;;;11.63;7.77;;;13.00;99.90;;;;;;5034584;28;20169;-57
2022/10/12 06:18:54;;;;;;;9.53;7.50;;;13.10;99.90;;;;;;5034060;28;20172;-57
2022/10/12 06:21:19;;;;;;;10.93;7.60;;;13.10;99.90;;;;;;5026645;28;20547;-56
2022/10/12 06:23:45;;;;;;;8.83;7.13;;;13.10;99.90;;;;;;5025031;28;20211;-58
2022/10/12 06:26:10;;;;;;;9.43;7.77;;;13.10;99.90;;;;;;5032688;28;20180;-58
2022/10/12 06:28:36;;;;;;;10.20;7.37;;;13.20;99.90;;;;;;5033838;28;20200;-54
2022/10/12 06:31:01;;;;;;;8.90;7.03;;;13.10;99.90;;;;;;5031999;28;20268;-58
2022/10/12 06:33:27;;;;;;;9.80;7.90;;;13.20;99.90;;;;;;5026854;28;20208;-56
2022/10/12 06:35:53;;;;;;;10.13;7.23;;;13.20;99.90;;;;;;5032244;28;20240;-57
2022/10/12 06:38:19;;;;;;;8.33;6.83;;;13.10;99.90;;;;;;5032573;28;20589;-57
2022/10/12 06:40:45;;;;;;;7.10;6.40;;;13.10;99.90;;;;;;5033878;28;20181;-56
2022/10/12 06:43:11;;;;;;;9.27;7.07;;;13.20;99.90;;;;;;5033678;28;20669;-58
2022/10/12 06:45:37;;;;;;;9.13;7.10;;;13.10;99.90;;;;;;5034954;28;20185;-58
2022/10/12 06:48:04;;;;;;;8.83;7.03;;;13.30;99.90;;;;;;5033488;28;20267;-58
2022/10/12 06:50:30;;;;;;;8.13;7.30;;;13.40;99.90;;;;;;5032298;28;20183;-59
2022/10/12 06:52:55;;;;;;;9.23;7.53;;;13.50;99.90;;;;;;5032070;28;20238;-59
2022/10/12 06:55:21;;;;;;;11.73;9.40;;;13.50;99.90;;;;;;5031767;28;20187;-58
2022/10/12 06:57:46;;;;;;;8.93;7.97;;;13.60;99.90;;;;;;5033945;28;20314;-57
2022/10/12 07:00:13;;;;;;;9.23;8.33;;;13.70;99.90;;;;;;5033497;28;20184;-57
2022/10/12 07:02:39;;;;;;;9.47;8.57;;;13.80;99.90;;;;;;5033956;28;20204;-58
2022/10/12 07:05:06;;;;;;;11.23;10.03;;;14.00;99.90;;;;;;5032686;28;20555;-59
2022/10/12 07:07:32;;;;;;;10.97;9.87;;;14.10;99.90;;;;;;5033898;28;20184;-59
2022/10/12 07:09:58;;;;;;;11.43;10.30;;;14.10;99.90;;;;;;5033903;28;20613;-57
2022/10/12 07:12:23;;;;;;;11.30;10.17;;;14.20;99.90;;;;;;5033446;28;20209;-58
2022/10/12 07:14:49;;;;;;;9.17;8.17;;;14.40;99.90;;;;;;5033600;28;20188;-57
2022/10/12 07:17:15;;;;;;;9.50;8.43;;;14.50;99.90;;;;;;5033423;28;20247;-58
2022/10/12 07:19:40;;;;;;;9.70;7.90;;;14.70;99.90;;;;;;5033376;28;20182;-59
2022/10/12 07:22:06;;;;;;;8.87;7.50;;;14.70;99.90;;;;;;5032452;28;20296;-58
2022/10/12 07:24:37;;;;;;;8.93;7.63;;;15.00;99.90;;;;;;5031092;28;20180;-58
2022/10/12 07:27:06;;;;;;;8.23;6.80;;;15.10;99.90;;;;;;5033671;28;20296;-59
2022/10/12 07:29:33;;;;;;;10.20;7.20;;;15.20;99.90;;;;;;5031868;28;20279;-57
2022/10/12 07:31:59;;;;;;;8.93;7.60;;;15.40;99.90;;;;;;5032375;28;20179;-57
2022/10/12 07:34:26;;;;;;;7.63;6.83;;;15.50;99.90;;;;;;5031905;28;20294;-57
2022/10/12 07:36:51;;;;;;;8.43;7.07;;;15.60;99.90;;;;;;5033118;28;20715;-57
2022/10/12 07:39:18;;;;;;;6.67;5.97;;;15.60;99.90;;;;;;5032896;28;20176;-59
2022/10/12 07:41:43;;;;;;;12.47;9.00;;;15.70;99.90;;;;;;5032779;28;20168;-58
2022/10/12 07:44:09;;;;;;;9.70;8.20;;;15.80;99.90;;;;;;5031892;28;20550;-54
2022/10/12 07:46:35;;;;;;;11.70;8.60;;;15.70;99.90;;;;;;5019470;28;20573;-59
2022/10/12 07:49:00;;;;;;;9.53;7.37;;;15.70;99.90;;;;;;5025361;28;20206;-59
2022/10/12 07:51:26;;;;;;;8.20;7.37;;;15.90;99.90;;;;;;5030556;28;20243;-59
2022/10/12 07:53:51;;;;;;;11.37;7.60;;;16.20;99.90;;;;;;5030031;28;20211;-58
2022/10/12 07:56:17;;;;;;;8.87;7.90;;;16.30;99.90;;;;;;5032195;28;20699;-58
2022/10/12 07:58:53;;;;;;;10.97;7.77;;;16.10;99.90;;;;;;5032466;28;20647;-58
2022/10/12 08:01:21;;;;;;;8.27;7.40;;;16.20;99.90;;;;;;5032054;28;20574;-59
2022/10/12 08:03:47;;;;;;;9.50;8.17;;;16.70;99.90;;;;;;5026065;28;20238;-57
2022/10/12 08:06:15;;;;;;;9.50;8.03;;;17.30;99.90;;;;;;5032678;28;20236;-59
2022/10/12 08:08:40;;;;;;;8.10;7.27;;;17.60;99.90;;;;;;5032518;28;20175;-59
2022/10/12 08:11:07;;;;;;;11.83;7.03;;;18.10;99.90;;;;;;5031985;28;20547;-59
2022/10/12 08:13:33;;;;;;;11.33;6.83;;;18.90;99.90;;;;;;5030124;28;20749;-58
2022/10/12 08:16:00;;;;;;;8.93;6.50;;;19.40;99.90;;;;;;5030542;28;20538;-59
2022/10/12 08:18:25;;;;;;;7.57;6.63;;;19.90;99.90;;;;;;5030070;28;20168;-60
2022/10/12 08:20:51;;;;;;;7.70;6.40;;;20.20;99.90;;;;;;5026464;28;20230;-59
2022/10/12 08:23:17;;;;;;;7.87;6.50;;;21.00;99.90;;;;;;5031019;28;20210;-59
2022/10/12 08:25:53;;;;;;;7.50;6.20;;;22.00;99.90;;;;;;5032187;28;20662;-59
2022/10/12 08:28:20;;;;;;;7.53;6.37;;;22.70;99.90;;;;;;5032339;28;20204;-58
2022/10/12 08:30:45;;;;;;;7.67;6.40;;;23.50;99.90;;;;;;5032260;28;20541;-60
2022/10/12 08:33:12;;;;;;;6.82;5.60;;;24.70;99.90;;;;;;5031616;28;20213;-59
2022/10/12 08:35:38;;;;;;;6.38;5.78;;;25.60;99.60;;;;;;5032041;28;20196;-59
2022/10/12 08:38:04;;;;;;;7.00;5.60;;;26.60;98.20;;;;;;5032337;28;20552;-60
2022/10/12 08:40:33;;;;;;;6.18;5.45;;;27.40;96.80;;;;;;5032136;28;20603;-59
2022/10/12 08:43:09;;;;;;;8.27;5.85;;;27.90;96.30;;;;;;5032153;28;20699;-60
2022/10/12 08:46:02;;;;;;;5.97;5.00;;;28.10;94.70;;;;;;5031841;28;20167;-60
2022/10/12 08:48:44;;;;;;;8.52;5.43;;;29.60;92.50;;;;;;5031510;28;20574;-61
2022/10/12 08:51:16;;;;;;;7.60;5.25;;;29.60;91.70;;;;;;5031972;28;20595;-60
2022/10/12 08:53:48;;;;;;;6.57;5.97;;;29.90;89.70;;;;;;5027783;28;20200;-60
2022/10/12 08:56:19;;;;;;;12.68;5.70;;;28.90;90.50;;;;;;5031590;28;20188;-59
2022/10/12 08:58:45;;;;;;;6.00;5.10;;;28.30;92.20;;;;;;5031784;28;20176;-56
2022/10/12 09:01:11;;;;;;;6.10;4.95;;;29.70;91.00;;;;;;5031766;28;20164;-58
2022/10/12 09:04:03;;;;;;;7.10;4.60;;;31.70;87.70;;;;;;5031402;28;20596;-56
2022/10/12 09:06:59;;;;;;;5.75;4.50;;;32.20;85.50;;;;;;5031702;28;20660;-56
2022/10/12 09:09:49;;;;;;;10.63;6.38;;;32.40;81.10;;;;;;5020874;28;20180;-57
2022/10/12 09:13:06;;;;;;;7.47;4.78;;;33.00;78.20;;;;;;5020139;28;20195;-57
2022/10/12 09:16:01;;;;;;;7.20;5.25;;;34.20;74.30;;;;;;5028880;28;20175;-56
2022/10/12 09:18:38;;;;;;;4.93;4.40;;;34.20;73.10;;;;;;5024717;28;20195;-57
2022/10/12 09:21:06;;;;;;;10.65;4.53;;;34.30;75.20;;;;;;5028994;28;20175;-58
2022/10/12 09:23:38;;;;;;;9.07;5.28;;;34.50;72.50;;;;;;5028554;28;20588;-58
2022/10/12 09:26:15;;;;;;;4.72;3.90;;;34.50;70.20;;;;;;5022836;28;20685;-58
2022/10/12 09:28:57;;;;;;;7.75;4.70;;;34.30;70.20;;;;;;5020501;28;20167;-57
2022/10/12 09:31:25;;;;;;;6.20;4.55;;;34.20;68.80;;;;;;5028969;28;20171;-57
2022/10/12 09:33:56;;;;;;;5.28;4.10;;;33.50;70.60;;;;;;5028166;28;20599;-58
2022/10/12 09:36:26;;;;;;;6.80;3.95;;;34.00;72.30;;;;;;5028938;28;20176;-58
2022/10/12 09:38:53;;;;;;;5.90;4.00;;;35.10;70.90;;;;;;5028718;28;20171;-58
2022/10/12 09:41:31;;;;;;;6.57;5.22;;;35.30;69.10;;;;;;5028955;28;20186;-58
2022/10/12 09:44:00;;;;;;;6.50;5.03;;;35.70;64.80;;;;;;5021335;28;20374;-57
2022/10/12 09:46:41;;;;;;;11.98;4.97;;;35.80;65.90;;;;;;5028736;28;20167;-57
2022/10/12 09:49:07;;;;;;;7.38;4.88;;;35.50;64.70;;;;;;5029739;28;20202;-57
2022/10/12 09:51:33;;;;;;;8.00;4.90;;;34.70;65.50;;;;;;5031221;28;20201;-59
2022/10/12 09:54:04;;;;;;;8.52;5.90;;;34.20;66.90;;;;;;5031005;28;20725;-60
2022/10/12 09:56:41;;;;;;;9.38;5.43;;;32.60;68.60;;;;;;5031104;28;20170;-57
2022/10/12 09:59:17;;;;;;;7.22;4.97;;;31.50;70.90;;;;;;5031088;28;20163;-57
2022/10/12 10:02:11;;;;;;;5.72;4.50;;;31.90;71.40;;;;;;5031117;28;20171;-57
2022/10/12 10:04:38;;;;;;;8.98;5.88;;;30.90;72.50;;;;;;5030058;28;20168;-55
2022/10/12 10:07:26;;;;;;;5.30;4.55;;;30.00;75.30;;;;;;5030920;28;20183;-60
2022/10/12 10:10:16;;;;;;;7.45;4.97;;;29.00;78.20;;;;;;5030419;28;20195;-56
2022/10/12 10:12:53;;;;;;;5.57;4.72;;;29.60;78.50;;;;;;5030739;28;20250;-56
2022/10/12 10:15:31;;;;;;;7.82;5.78;;;29.90;77.90;;;;;;5030648;28;20167;-56
2022/10/12 10:17:59;;;;;;;10.40;5.63;;;30.40;76.30;;;;;;5024854;28;20168;-58
2022/10/12 10:20:41;;;;;;;5.72;4.68;;;30.60;75.90;;;;;;5030867;28;20168;-58
2022/10/12 10:23:26;;;;;;;5.88;4.30;;;31.00;77.60;;;;;;5030525;28;20293;-57
2022/10/12 10:25:57;;;;;;;7.10;3.97;;;33.00;71.10;;;;;;5031034;28;20247;-58
2022/10/12 10:28:28;;;;;;;7.90;4.75;;;33.40;71.30;;;;;;5030680;28;20667;-59
2022/10/12 10:31:01;;;;;;;6.72;6.07;;;33.40;70.80;;;;;;5031055;28;20270;-58
2022/10/12 10:33:28;;;;;;;15.32;12.10;;;32.60;70.80;;;;;;5029952;28;20203;-59
2022/10/12 10:36:05;;;;;;;4.18;3.78;;;32.10;70.50;;;;;;5030373;28;20192;-60
2022/10/12 10:38:43;;;;;;;6.05;4.50;;;32.10;74.40;;;;;;5030610;28;20160;-60
2022/10/12 10:41:16;;;;;;;7.57;5.50;;;33.10;71.20;;;;;;5033164;28;20164;-60
2022/10/12 10:43:47;;;;;;;5.97;5.07;;;33.40;69.30;;;;;;5033783;28;20218;-59
2022/10/12 10:46:20;;;;;;;10.38;6.10;;;34.40;68.60;;;;;;5035722;28;20170;-59
2022/10/12 10:49:00;;;;;;;6.50;5.15;;;34.00;67.40;;;;;;5034248;28;20225;-59
2022/10/12 10:51:59;;;;;;;7.45;5.40;;;33.40;67.50;;;;;;5034326;28;20163;-59
2022/10/12 10:54:30;;;;;;;6.38;5.68;;;31.50;70.40;;;;;;5031164;28;20215;-59
2022/10/12 10:57:15;;;;;;;8.30;5.13;;;31.40;72.30;;;;;;5031806;28;20533;-59
2022/10/12 10:59:49;;;;;;;7.00;5.43;;;30.80;75.60;;;;;;5031642;28;20251;-60
2022/10/12 11:02:35;;;;;;;8.10;7.40;;;30.60;75.70;;;;;;5031610;28;20197;-59
2022/10/12 11:05:16;;;;;;;9.60;4.88;;;31.70;73.10;;;;;;4952820;29;20599;-60
2022/10/12 11:07:52;;;;;;;7.72;5.22;;;32.40;72.40;;;;;;4953444;29;20277;-59
2022/10/12 11:10:35;;;;;;;7.40;5.05;;;32.30;71.30;;;;;;4953271;29;20361;-60
2022/10/12 11:13:20;;;;;;;6.70;4.78;;;32.70;70.40;;;;;;4953158;28;20571;-58
2022/10/12 11:16:11;;;;;;;7.28;6.15;;;32.50;69.60;;;;;;4953177;29;20186;-60
2022/10/12 11:19:04;;;;;;;6.47;5.03;;;32.70;70.80;;;;;;4953185;29;20185;-60
2022/10/12 11:21:37;;;;;;;6.60;5.90;;;32.70;70.30;;;;;;4953116;29;20209;-58
2022/10/12 11:24:28;;;;;;;7.85;5.22;;;31.10;71.80;;;;;;4953031;28;20575;-61
2022/10/12 11:26:53;;;;;;;6.15;5.55;;;30.90;73.10;;;;;;4935560;29;20191;-58
2022/10/12 11:29:19;;;;;;;7.78;5.78;;;31.00;72.60;;;;;;4937993;29;20194;-59
2022/10/12 11:32:06;;;;;;;7.72;6.35;;;30.50;74.20;;;;;;4952933;29;20179;-59
2022/10/12 11:34:44;;;;;;;7.90;5.63;;;30.00;74.80;;;;;;4952517;29;20215;-58
2022/10/12 11:37:18;;;;;;;6.00;5.40;;;30.00;77.90;;;;;;4952903;28;20183;-60
2022/10/12 11:39:49;;;;;;;8.90;6.90;;;29.90;78.60;;;;;;4953024;29;20162;-59
2022/10/12 11:42:27;;;;;;;8.52;5.68;;;30.30;75.90;;;;;;4986205;28;20267;-59
2022/10/12 11:44:53;;;;;;;9.18;5.90;;;31.00;74.50;;;;;;5013129;28;20172;-59
2022/10/12 11:47:40;;;;;;;8.48;5.53;;;31.30;76.40;;;;;;5013389;28;20179;-60
2022/10/12 11:50:25;;;;;;;6.32;4.15;;;31.10;75.50;;;;;;5013274;28;20560;-60
2022/10/12 11:52:53;;;;;;;8.00;5.40;;;31.20;76.40;;;;;;5013302;28;20285;-60
2022/10/12 11:55:42;;;;;;;7.65;6.20;;;31.60;74.10;;;;;;5012747;28;20164;-59
2022/10/12 11:58:22;;;;;;;8.85;6.30;;;30.10;75.60;;;;;;5013212;28;20153;-60
2022/10/12 12:01:12;;;;;;;9.82;5.75;;;29.00;79.10;;;;;;5013059;28;20168;-57
2022/10/12 12:03:54;;;;;;;8.52;5.90;;;28.60;81.70;;;;;;5012528;28;20228;-57
2022/10/12 12:06:28;;;;;;;8.48;6.45;;;28.30;80.60;;;;;;5013308;28;20546;-60
2022/10/12 12:09:00;;;;;;;7.80;6.85;;;29.00;79.30;;;;;;5013047;28;20187;-59
2022/10/12 12:11:31;;;;;;;6.00;4.90;;;30.10;75.60;;;;;;5012758;28;20653;-60
2022/10/12 12:14:25;;;;;;;8.48;5.50;;;30.70;76.20;;;;;;5012473;28;20670;-59
2022/10/12 12:17:13;;;;;;;7.97;5.70;;;30.50;77.00;;;;;;4971235;28;20220;-61
2022/10/12 12:19:41;;;;;;;7.82;4.97;;;31.00;74.40;;;;;;4971308;28;20170;-60
2022/10/12 12:22:25;;;;;;;6.07;5.47;;;30.50;78.40;;;;;;4971046;28;20188;-60
2022/10/12 12:24:58;;;;;;;5.82;5.10;;;29.70;78.00;;;;;;4971200;28;20158;-60
2022/10/12 12:27:35;;;;;;;8.20;5.60;;;29.00;81.10;;;;;;4970867;28;20185;-59
2022/10/12 12:30:18;;;;;;;7.93;5.25;;;28.50;79.00;;;;;;4971291;28;20178;-60
2022/10/12 12:33:21;;;;;;;11.23;6.43;;;27.90;82.20;;;;;;4970641;28;20217;-60
2022/10/12 12:35:54;;;;;;;7.18;6.47;;;27.50;82.50;;;;;;4971024;28;20262;-59
2022/10/12 12:38:28;;;;;;;7.97;6.28;;;26.50;83.20;;;;;;4971150;28;20174;-59
2022/10/12 12:40:58;;;;;;;8.05;6.32;;;25.90;86.90;;;;;;4971118;28;20193;-60
2022/10/12 12:43:29;;;;;;;9.25;6.18;;;26.00;86.10;;;;;;4969368;28;20209;-59
2022/10/12 12:45:56;;;;;;;6.55;5.85;;;26.50;84.40;;;;;;4970029;28;20212;-58
2022/10/12 12:48:40;;;;;;;6.70;6.00;;;26.90;85.50;;;;;;4970386;28;20249;-59
2022/10/12 12:51:34;;;;;;;9.98;7.43;;;27.10;85.10;;;;;;4970263;28;20188;-61
2022/10/12 12:54:20;;;;;;;10.25;6.85;;;26.80;83.10;;;;;;4997603;28;20224;-60
2022/10/12 12:57:10;;;;;;;9.85;6.47;;;26.50;84.20;;;;;;5012317;28;20176;-60
2022/10/12 13:00:03;;;;;;;7.95;5.82;;;26.10;86.40;;;;;;5012029;28;20173;-60
2022/10/12 13:02:53;;;;;;;10.02;5.97;;;25.50;89.00;;;;;;5012007;28;20184;-60